createdAt,value
2022-11-15T00:01:38.390Z,100.00
2022-11-15T00:04:12.894Z,100.00
2022-11-15T00:06:40.338Z,100.00
2022-11-15T00:09:08.108Z,100.00
2022-11-15T00:11:36.041Z,100.00
2022-11-15T00:14:05.734Z,100.00
2022-11-15T00:16:36.207Z,100.00
2022-11-15T00:19:06.636Z,100.00
2022-11-15T00:21:33.874Z,100.00
2022-11-15T00:24:01.498Z,100.00
2022-11-15T00:26:28.783Z,100.00
2022-11-15T00:28:56.363Z,100.00
2022-11-15T00:31:25.035Z,100.00
2022-11-15T00:33:52.625Z,100.00
2022-11-15T00:36:20.014Z,100.00
2022-11-15T00:38:47.412Z,100.00
2022-11-15T00:41:17.477Z,100.00
2022-11-15T00:43:45.582Z,100.00
2022-11-15T00:46:13.226Z,100.00
2022-11-15T00:48:40.473Z,100.00
2022-11-15T00:51:07.828Z,100.00
2022-11-15T00:53:35.111Z,100.00
2022-11-15T00:56:03.077Z,100.00
2022-11-15T00:58:30.188Z,100.00
2022-11-15T01:00:58.060Z,100.00
2022-11-15T01:03:25.212Z,100.00
2022-11-15T01:05:52.391Z,100.00
2022-11-15T01:08:19.712Z,100.00
2022-11-15T01:10:47.310Z,100.00
2022-11-15T01:13:14.442Z,100.00
2022-11-15T01:15:42.636Z,100.00
2022-11-15T01:18:10.240Z,100.00
2022-11-15T01:20:46.373Z,100.00
2022-11-15T01:23:13.473Z,100.00
2022-11-15T01:25:40.961Z,100.00
2022-11-15T01:28:08.449Z,100.00
2022-11-15T01:30:37.666Z,100.00
2022-11-15T01:33:04.950Z,100.00
2022-11-15T01:35:32.310Z,100.00
2022-11-15T01:37:59.499Z,100.00
2022-11-15T01:40:26.523Z,100.00
2022-11-15T01:42:53.728Z,100.00
2022-11-15T01:45:20.887Z,100.00
2022-11-15T01:47:54.128Z,100.00
2022-11-15T01:50:31.925Z,100.00
2022-11-15T01:53:02.330Z,100.00
2022-11-15T01:55:29.719Z,100.00
2022-11-15T01:58:01.512Z,100.00
2022-11-15T02:00:29.994Z,100.00
2022-11-15T02:02:57.691Z,100.00
2022-11-15T02:05:25.201Z,100.00
2022-11-15T02:07:52.975Z,100.00
2022-11-15T02:10:23.319Z,100.00
2022-11-15T02:12:51.850Z,100.00
2022-11-15T02:15:19.349Z,100.00
2022-11-15T02:17:52.489Z,100.00
2022-11-15T02:20:31.645Z,100.00
2022-11-15T02:23:37.030Z,100.00
2022-11-15T02:26:26.170Z,100.00
2022-11-15T02:29:05.371Z,100.00
2022-11-15T02:31:38.285Z,100.00
2022-11-15T02:34:20.901Z,100.00
2022-11-15T02:37:05.261Z,100.00
2022-11-15T02:40:17.013Z,100.00
2022-11-15T02:43:13.157Z,100.00
2022-11-15T02:45:52.589Z,100.00
2022-11-15T02:48:26.821Z,100.00
2022-11-15T02:50:54.235Z,100.00
2022-11-15T02:53:26.517Z,100.00
2022-11-15T02:55:56.405Z,100.00
2022-11-15T02:58:37.622Z,100.00
2022-11-15T03:01:22.436Z,100.00
2022-11-15T03:04:08.140Z,100.00
2022-11-15T03:06:54.369Z,100.00
2022-11-15T03:09:41.797Z,100.00
2022-11-15T03:12:21.464Z,100.00
2022-11-15T03:15:02.661Z,100.00
2022-11-15T03:17:40.025Z,100.00
2022-11-15T03:20:09.422Z,100.00
2022-11-15T03:22:42.388Z,100.00
2022-11-15T03:25:15.680Z,100.00
2022-11-15T03:27:49.174Z,100.00
2022-11-15T03:30:17.251Z,100.00
2022-11-15T03:32:49.119Z,100.00
2022-11-15T03:35:22.213Z,100.00
2022-11-15T03:38:21.603Z,100.00
2022-11-15T03:41:05.243Z,100.00
2022-11-15T03:43:48.139Z,100.00
2022-11-15T03:46:42.401Z,100.00
2022-11-15T03:49:25.954Z,100.00
2022-11-15T03:51:53.527Z,100.00
2022-11-15T03:54:20.692Z,100.00
2022-11-15T03:56:48.090Z,100.00
2022-11-15T03:59:15.134Z,100.00
2022-11-15T04:01:42.307Z,100.00
2022-11-15T04:04:09.520Z,100.00
2022-11-15T04:06:39.038Z,100.00
2022-11-15T04:09:06.237Z,100.00
2022-11-15T04:11:33.689Z,100.00
2022-11-15T04:14:01.128Z,100.00
2022-11-15T04:16:28.142Z,100.00
2022-11-15T04:19:14.238Z,100.00
2022-11-15T04:22:02.896Z,100.00
2022-11-15T04:24:30.184Z,100.00
2022-11-15T04:26:57.324Z,100.00
2022-11-15T04:29:36.789Z,100.00
2022-11-15T04:32:05.851Z,100.00
2022-11-15T04:34:33.841Z,100.00
2022-11-15T04:37:12.857Z,100.00
2022-11-15T04:39:44.401Z,100.00
2022-11-15T04:42:32.162Z,100.00
2022-11-15T04:45:05.376Z,100.00
2022-11-15T04:47:32.584Z,100.00
2022-11-15T04:50:03.179Z,100.00
2022-11-15T04:52:30.330Z,100.00
2022-11-15T04:55:08.263Z,100.00
2022-11-15T04:57:35.635Z,100.00
2022-11-15T05:00:05.064Z,100.00
2022-11-15T05:02:54.943Z,100.00
2022-11-15T05:05:22.437Z,100.00
2022-11-15T05:07:49.580Z,100.00
2022-11-15T05:10:16.702Z,100.00
2022-11-15T05:12:43.829Z,100.00
2022-11-15T05:15:11.378Z,100.00
2022-11-15T05:17:41.664Z,100.00
2022-11-15T05:20:09.136Z,100.00
2022-11-15T05:22:36.489Z,100.00
2022-11-15T05:25:04.261Z,100.00
2022-11-15T05:27:31.490Z,100.00
2022-11-15T05:29:59.084Z,100.00
2022-11-15T05:32:26.871Z,100.00
2022-11-15T05:34:54.581Z,100.00
2022-11-15T05:37:34.521Z,100.00
2022-11-15T05:40:01.721Z,100.00
2022-11-15T05:42:31.188Z,100.00
2022-11-15T05:44:59.887Z,100.00
2022-11-15T05:47:31.033Z,100.00
2022-11-15T05:49:58.935Z,100.00
2022-11-15T05:52:36.238Z,100.00
2022-11-15T05:55:06.323Z,100.00
2022-11-15T05:57:33.769Z,100.00
2022-11-15T06:00:01.609Z,100.00
2022-11-15T06:02:28.868Z,100.00
2022-11-15T06:04:56.011Z,100.00
2022-11-15T06:07:23.301Z,100.00
2022-11-15T06:09:50.408Z,100.00
2022-11-15T06:12:17.545Z,100.00
2022-11-15T06:14:44.780Z,100.00
2022-11-15T06:17:11.957Z,100.00
2022-11-15T06:19:39.121Z,100.00
2022-11-15T06:22:06.521Z,100.00
2022-11-15T06:24:33.791Z,100.00
2022-11-15T06:27:00.919Z,100.00
2022-11-15T06:29:28.228Z,100.00
2022-11-15T06:31:55.375Z,100.00
2022-11-15T06:34:22.926Z,100.00
2022-11-15T06:36:49.969Z,100.00
2022-11-15T06:39:17.283Z,100.00
2022-11-15T06:41:44.450Z,100.00
2022-11-15T06:44:11.609Z,100.00
2022-11-15T06:46:38.599Z,100.00
2022-11-15T06:49:09.535Z,100.00
2022-11-15T06:51:37.099Z,100.00
2022-11-15T06:54:04.506Z,100.00
2022-11-15T06:56:31.624Z,100.00
2022-11-15T06:59:07.570Z,100.00
2022-11-15T07:01:37.674Z,100.00
2022-11-15T07:04:04.937Z,100.00
2022-11-15T07:06:32.034Z,100.00
2022-11-15T07:08:59.277Z,100.00
2022-11-15T07:11:26.417Z,100.00
2022-11-15T07:14:09.718Z,100.00
2022-11-15T07:16:38.120Z,100.00
2022-11-15T07:19:07.535Z,100.00
2022-11-15T07:21:34.741Z,100.00
2022-11-15T07:24:02.042Z,100.00
2022-11-15T07:26:29.314Z,100.00
2022-11-15T07:28:56.442Z,100.00
2022-11-15T07:31:23.674Z,100.00
2022-11-15T07:33:50.787Z,100.00
2022-11-15T07:36:17.921Z,100.00
2022-11-15T07:38:45.263Z,100.00
2022-11-15T07:41:12.612Z,100.00
2022-11-15T07:43:40.017Z,100.00
2022-11-15T07:46:10.773Z,100.00
2022-11-15T07:48:45.276Z,100.00
2022-11-15T07:51:15.565Z,100.00
2022-11-15T07:53:44.117Z,100.00
2022-11-15T07:56:11.800Z,100.00
2022-11-15T07:58:38.867Z,100.00
2022-11-15T08:01:07.870Z,100.00
2022-11-15T08:03:35.823Z,100.00
2022-11-15T08:06:03.612Z,100.00
2022-11-15T08:08:30.592Z,100.00
2022-11-15T08:10:59.797Z,100.00
2022-11-15T08:13:26.942Z,100.00
2022-11-15T08:15:59.459Z,100.00
2022-11-15T08:18:26.625Z,100.00
2022-11-15T08:20:53.713Z,100.00
2022-11-15T08:23:20.926Z,100.00
2022-11-15T08:25:48.262Z,100.00
2022-11-15T08:28:17.910Z,100.00
2022-11-15T08:30:46.792Z,100.00
2022-11-15T08:33:15.432Z,100.00
2022-11-15T08:35:44.688Z,100.00
2022-11-15T08:38:12.179Z,100.00
2022-11-15T08:40:39.524Z,100.00
2022-11-15T08:43:06.959Z,100.00
2022-11-15T08:45:36.059Z,100.00
2022-11-15T08:48:04.601Z,100.00
2022-11-15T08:50:32.299Z,100.00
2022-11-15T08:52:59.443Z,100.00
2022-11-15T08:55:26.905Z,100.00
2022-11-15T08:57:54.039Z,100.00
2022-11-15T09:00:41.855Z,100.00
2022-11-15T09:03:10.835Z,100.00
2022-11-15T09:05:39.296Z,100.00
2022-11-15T09:08:25.582Z,100.00
2022-11-15T09:10:56.276Z,100.00
2022-11-15T09:13:25.020Z,100.00
2022-11-15T09:16:08.779Z,100.00
2022-11-15T09:18:45.599Z,100.00
2022-11-15T09:21:14.049Z,100.00
2022-11-15T09:23:41.510Z,100.00
2022-11-15T09:26:12.076Z,100.00
2022-11-15T09:28:42.977Z,100.00
2022-11-15T09:31:16.800Z,100.00
2022-11-15T09:39:47.823Z,99.54
2022-11-15T09:43:43.280Z,100.00
2022-11-15T09:46:28.557Z,100.00
2022-11-15T09:49:07.063Z,100.00
2022-11-15T09:52:02.274Z,100.00
2022-11-15T09:54:52.881Z,100.00
2022-11-15T09:57:35.155Z,100.00
2022-11-15T10:00:43.907Z,100.00
2022-11-15T10:03:29.519Z,100.00
2022-11-15T10:06:05.429Z,100.00
2022-11-15T10:09:18.928Z,99.77
2022-11-15T10:11:50.970Z,100.00
2022-11-15T10:14:31.689Z,100.00
2022-11-15T10:17:28.133Z,100.00
2022-11-15T10:20:14.405Z,99.76
2022-11-15T10:23:25.699Z,100.00
2022-11-15T10:26:19.006Z,100.00
2022-11-15T10:28:49.368Z,100.00
2022-11-15T10:31:30.646Z,99.75
2022-11-15T10:34:37.437Z,99.47
2022-11-15T10:37:05.766Z,100.00
2022-11-15T10:42:30.761Z,99.98
2022-11-15T10:44:59.462Z,98.10
2022-11-15T10:47:38.870Z,98.53
2022-11-15T10:50:30.649Z,98.53
2022-11-15T10:52:58.736Z,98.81
2022-11-15T10:55:34.515Z,97.26
2022-11-15T10:58:38.725Z,97.61
2022-11-15T11:01:19.279Z,97.54
2022-11-15T11:04:05.293Z,97.93
2022-11-15T11:06:53.038Z,97.53
2022-11-15T11:09:32.282Z,97.24
2022-11-15T11:12:04.293Z,97.04
2022-11-15T11:14:55.140Z,96.81
2022-11-15T11:17:46.231Z,96.97
2022-11-15T11:23:53.777Z,93.44
2022-11-15T11:27:10.461Z,92.52
2022-11-15T11:29:43.518Z,93.53
2022-11-15T11:32:19.419Z,91.34
2022-11-15T11:34:51.942Z,91.20
2022-11-15T11:37:30.857Z,89.93
2022-11-15T11:40:20.903Z,92.71
2022-11-15T11:43:13.050Z,92.50
2022-11-15T11:45:47.219Z,93.38
2022-11-15T11:48:25.253Z,92.73
2022-11-15T11:50:54.190Z,92.87
2022-11-15T11:53:42.753Z,90.08
2022-11-15T11:56:23.044Z,91.20
2022-11-15T11:58:56.264Z,90.68
2022-11-15T12:01:46.883Z,91.44
2022-11-15T12:04:32.306Z,92.33
2022-11-15T12:07:47.407Z,93.37
2022-11-15T12:11:03.725Z,92.97
2022-11-15T12:13:35.953Z,90.83
2022-11-15T12:16:31.221Z,91.12
2022-11-15T12:19:03.172Z,91.57
2022-11-15T12:21:42.423Z,93.42
2022-11-15T12:24:49.463Z,94.12
2022-11-15T12:27:38.410Z,93.14
2022-11-15T12:30:14.803Z,92.03
2022-11-15T12:32:52.641Z,92.77
2022-11-15T12:35:40.342Z,93.17
2022-11-15T12:38:12.856Z,93.42
2022-11-15T12:41:15.749Z,93.60
2022-11-15T12:43:47.378Z,93.96
2022-11-15T12:46:20.904Z,93.58
2022-11-15T12:48:51.776Z,92.38
2022-11-15T12:51:21.994Z,90.25
2022-11-15T12:53:49.420Z,89.59
2022-11-15T12:56:16.360Z,90.87
2022-11-15T12:58:47.929Z,91.10
2022-11-15T13:01:39.391Z,91.74
2022-11-15T13:04:22.675Z,91.99
2022-11-15T13:09:46.594Z,91.63
2022-11-15T13:12:28.991Z,92.17
2022-11-15T13:14:59.850Z,92.74
2022-11-15T13:18:08.830Z,91.32
2022-11-15T13:20:36.190Z,91.06
2022-11-15T13:23:15.276Z,92.07
2022-11-15T13:26:06.799Z,92.03
2022-11-15T13:28:42.942Z,91.30
2022-11-15T13:31:36.266Z,92.13
2022-11-15T13:34:50.436Z,91.88
2022-11-15T13:37:23.082Z,91.42
2022-11-15T13:39:53.935Z,92.66
2022-11-15T13:42:23.266Z,92.92
2022-11-15T13:45:03.823Z,92.09
2022-11-15T13:47:32.940Z,91.22
2022-11-15T13:50:02.263Z,92.60
2022-11-15T13:52:35.159Z,92.01
2022-11-15T13:55:17.291Z,91.82
2022-11-15T13:57:55.439Z,93.54
2022-11-15T14:00:37.517Z,93.31
2022-11-15T14:03:37.233Z,94.03
2022-11-15T14:06:08.251Z,94.20
2022-11-15T14:08:36.622Z,93.60
2022-11-15T14:11:14.490Z,93.26
2022-11-15T14:13:42.553Z,93.60
2022-11-15T14:16:36.851Z,93.75
2022-11-15T14:19:06.316Z,94.25
2022-11-15T14:21:34.087Z,94.80
2022-11-15T14:24:37.880Z,95.75
2022-11-15T14:27:28.558Z,96.20
2022-11-15T14:29:56.907Z,96.40
2022-11-15T14:32:25.428Z,95.54
2022-11-15T14:35:03.031Z,96.33
2022-11-15T14:37:38.785Z,96.82
2022-11-15T14:40:10.851Z,97.01
2022-11-15T14:42:53.278Z,97.55
2022-11-15T14:45:23.384Z,97.54
2022-11-15T14:47:57.281Z,98.18
2022-11-15T14:50:24.505Z,98.44
2022-11-15T14:52:54.998Z,99.75
2022-11-15T14:55:33.052Z,99.85
2022-11-15T14:58:00.495Z,99.83
2022-11-15T15:00:39.081Z,99.22
2022-11-15T15:03:29.614Z,100.00
2022-11-15T15:05:57.723Z,99.58
2022-11-15T15:08:24.939Z,99.81
2022-11-15T15:10:52.117Z,100.00
2022-11-15T15:13:25.209Z,100.00
2022-11-15T15:15:53.703Z,100.00
2022-11-15T15:22:46.291Z,100.00
2022-11-15T15:25:28.660Z,100.00
2022-11-15T15:27:56.666Z,100.00
2022-11-15T15:30:26.833Z,100.00
2022-11-15T15:33:01.040Z,100.00
2022-11-15T15:35:33.147Z,100.00
2022-11-15T15:38:00.911Z,100.00
2022-11-15T15:40:30.430Z,100.00
2022-11-15T15:42:58.272Z,100.00
2022-11-15T15:45:28.701Z,100.00
2022-11-15T15:47:56.419Z,100.00
2022-11-15T15:50:26.732Z,100.00
2022-11-15T15:52:59.735Z,100.00
2022-11-15T15:55:27.816Z,100.00
2022-11-15T15:57:55.209Z,100.00
2022-11-15T16:00:24.961Z,100.00
2022-11-15T16:02:53.331Z,100.00
2022-11-15T16:05:21.740Z,100.00
2022-11-15T16:07:49.809Z,100.00
2022-11-15T16:10:22.413Z,100.00
2022-11-15T16:12:49.950Z,100.00
2022-11-15T16:15:17.282Z,100.00
2022-11-15T16:17:56.697Z,100.00
2022-11-15T16:20:46.625Z,100.00
2022-11-15T16:23:16.935Z,100.00
2022-11-15T16:25:57.066Z,100.00
2022-11-15T16:28:29.741Z,100.00
2022-11-15T16:31:10.606Z,100.00
2022-11-15T16:33:38.917Z,100.00
2022-11-15T16:36:16.164Z,100.00
2022-11-15T16:38:49.957Z,100.00
2022-11-15T16:41:20.282Z,100.00
2022-11-15T16:43:54.059Z,100.00
2022-11-15T16:46:27.322Z,100.00
2022-11-15T16:48:55.579Z,100.00
2022-11-15T16:51:23.807Z,100.00
2022-11-15T16:53:51.578Z,100.00
2022-11-15T16:56:30.655Z,100.00
2022-11-15T16:58:59.181Z,100.00
2022-11-15T17:01:28.781Z,100.00
2022-11-15T17:03:58.897Z,100.00
2022-11-15T17:06:27.251Z,100.00
2022-11-15T17:08:55.281Z,100.00
2022-11-15T17:11:23.317Z,100.00
2022-11-15T17:13:50.643Z,100.00
2022-11-15T17:16:18.903Z,100.00
2022-11-15T17:18:50.957Z,100.00
2022-11-15T17:21:19.864Z,100.00
2022-11-15T17:23:47.491Z,100.00
2022-11-15T17:26:35.043Z,100.00
2022-11-15T17:29:08.254Z,100.00
2022-11-15T17:31:37.042Z,100.00
2022-11-15T17:34:06.401Z,100.00
2022-11-15T17:36:35.248Z,100.00
2022-11-15T17:39:03.395Z,100.00
2022-11-15T17:41:30.780Z,100.00
2022-11-15T17:44:00.239Z,100.00
2022-11-15T17:46:28.755Z,100.00
2022-11-15T17:48:57.460Z,100.00
2022-11-15T17:51:25.098Z,100.00
2022-11-15T17:53:53.395Z,100.00
2022-11-15T17:56:24.854Z,100.00
2022-11-15T17:58:54.578Z,100.00
2022-11-15T18:01:24.151Z,100.00
2022-11-15T18:03:52.314Z,100.00
2022-11-15T18:06:21.517Z,100.00
2022-11-15T18:08:51.555Z,100.00
2022-11-15T18:11:40.819Z,100.00
2022-11-15T18:14:14.713Z,100.00
2022-11-15T18:16:42.886Z,100.00
2022-11-15T18:19:14.182Z,100.00
2022-11-15T18:21:58.379Z,100.00
2022-11-15T18:24:30.575Z,100.00
2022-11-15T18:26:59.089Z,100.00
2022-11-15T18:29:29.694Z,100.00
2022-11-15T18:31:57.545Z,100.00
2022-11-15T18:34:27.295Z,100.00
2022-11-15T18:36:54.931Z,100.00
2022-11-15T18:39:22.368Z,100.00
2022-11-15T18:41:50.083Z,100.00
2022-11-15T18:44:36.460Z,100.00
2022-11-15T18:47:03.943Z,100.00
2022-11-15T18:49:31.219Z,100.00
2022-11-15T18:51:58.602Z,100.00
2022-11-15T18:54:30.938Z,100.00
2022-11-15T18:56:58.648Z,100.00
2022-11-15T18:59:32.446Z,100.00
2022-11-15T19:02:03.674Z,100.00
2022-11-15T19:04:31.162Z,100.00
2022-11-15T19:06:58.938Z,100.00
2022-11-15T19:09:33.106Z,100.00
2022-11-15T19:12:02.320Z,100.00
2022-11-15T19:14:30.040Z,100.00
2022-11-15T19:16:57.949Z,100.00
2022-11-15T19:19:26.487Z,100.00
2022-11-15T19:21:57.812Z,100.00
2022-11-15T19:24:26.886Z,100.00
2022-11-15T19:26:57.969Z,100.00
2022-11-15T19:29:25.258Z,100.00
2022-11-15T19:31:52.758Z,100.00
2022-11-15T19:34:20.298Z,100.00
2022-11-15T19:36:47.851Z,100.00
2022-11-15T19:39:18.244Z,100.00
2022-11-15T19:41:46.879Z,100.00
2022-11-15T19:44:14.631Z,100.00
2022-11-15T19:46:42.702Z,100.00
2022-11-15T19:49:11.487Z,100.00
2022-11-15T19:51:41.962Z,100.00
2022-11-15T19:54:10.896Z,100.00
2022-11-15T19:56:40.311Z,100.00
2022-11-15T19:59:07.926Z,100.00
2022-11-15T20:01:38.248Z,100.00
2022-11-15T20:04:06.738Z,100.00
2022-11-15T20:06:37.072Z,100.00
2022-11-15T20:09:04.838Z,100.00
2022-11-15T20:11:32.448Z,100.00
2022-11-15T20:14:02.587Z,100.00
2022-11-15T20:16:29.886Z,100.00
2022-11-15T20:18:57.371Z,100.00
2022-11-15T20:21:25.179Z,100.00
2022-11-15T20:23:52.744Z,100.00
2022-11-15T20:26:21.190Z,100.00
2022-11-15T20:28:49.084Z,100.00
2022-11-15T20:31:16.997Z,100.00
2022-11-15T20:33:44.051Z,100.00
2022-11-15T20:36:13.746Z,100.00
2022-11-15T20:38:40.943Z,100.00
2022-11-15T20:41:08.622Z,100.00
2022-11-15T20:43:35.979Z,100.00
2022-11-15T20:46:03.246Z,100.00
2022-11-15T20:48:32.782Z,100.00
2022-11-15T20:51:10.374Z,100.00
2022-11-15T20:53:37.962Z,100.00
2022-11-15T20:56:11.492Z,100.00
2022-11-15T20:58:39.984Z,100.00
2022-11-15T21:01:08.774Z,100.00
2022-11-15T21:03:40.604Z,100.00
2022-11-15T21:06:12.884Z,100.00
2022-11-15T21:09:03.610Z,100.00
2022-11-15T21:11:50.154Z,100.00
2022-11-15T21:14:20.920Z,100.00
2022-11-15T21:17:15.444Z,100.00
2022-11-15T21:19:55.212Z,100.00
2022-11-15T21:22:42.079Z,100.00
2022-11-15T21:25:16.515Z,100.00
2022-11-15T21:27:48.097Z,100.00
2022-11-15T21:30:35.357Z,100.00
2022-11-15T21:33:28.723Z,100.00
2022-11-15T21:36:00.714Z,100.00
2022-11-15T21:46:24.878Z,100.00
2022-11-15T21:49:05.705Z,100.00
2022-11-15T21:51:45.459Z,100.00
2022-11-15T21:54:23.735Z,100.00
2022-11-15T21:57:25.499Z,100.00
2022-11-15T22:00:30.625Z,100.00
2022-11-15T22:03:17.901Z,100.00
2022-11-15T22:06:18.038Z,100.00
2022-11-15T22:09:04.868Z,100.00
2022-11-15T22:11:45.559Z,100.00
2022-11-15T22:14:19.168Z,100.00
2022-11-15T22:20:16.601Z,100.00
2022-11-15T22:23:32.430Z,100.00
2022-11-15T22:26:13.021Z,100.00
2022-11-15T22:31:31.651Z,100.00
2022-11-15T22:34:37.143Z,100.00
2022-11-15T22:37:24.087Z,100.00
2022-11-15T22:39:51.707Z,100.00
2022-11-15T22:45:23.477Z,100.00
2022-11-15T22:45:31.968Z,100.00
2022-11-15T22:47:54.523Z,100.00
2022-11-15T22:50:46.627Z,100.00
2022-11-15T22:53:26.476Z,100.00
2022-11-15T22:56:20.126Z,100.00
2022-11-15T22:59:02.403Z,100.00
2022-11-15T23:01:33.182Z,100.00
2022-11-15T23:04:02.936Z,100.00
2022-11-15T23:10:06.771Z,100.00
2022-11-15T23:13:14.846Z,100.00
2022-11-15T23:16:19.242Z,100.00
2022-11-15T23:22:38.470Z,100.00
2022-11-15T23:25:16.479Z,100.00
2022-11-15T23:27:47.442Z,100.00
2022-11-15T23:30:45.887Z,100.00
2022-11-15T23:34:55.709Z,100.00
2022-11-15T23:36:42.730Z,100.00
2022-11-15T23:42:08.800Z,100.00
2022-11-15T23:44:45.812Z,100.00
2022-11-15T23:47:17.634Z,100.00
2022-11-15T23:49:48.199Z,100.00
2022-11-15T23:52:26.588Z,100.00
2022-11-15T23:54:56.602Z,100.00
2022-11-15T23:57:24.438Z,100.00
